Time;durP1;ratioP1;P1;durP2;ratioP2;P2;SDS_P1;SDS_P2;PMS_P1;PMS_P2;Temp;Humidity;BMP_temperature;BMP_pressure;BME280_temperature;BME280_humidity;BME280_pressure;Samples;Min_cycle;Max_cycle;Signal;HPM_P1;HPM_P2
2023/10/28 00:00:58;;;;;;;12.27;7.28;;;25.70;99.90;;;;;;4974222;28;20039;-51
2023/10/28 00:03:25;;;;;;;11.73;6.57;;;25.70;99.90;;;;;;4974385;28;20025;-51
2023/10/28 00:05:50;;;;;;;16.17;7.40;;;25.70;99.90;;;;;;4974399;28;20019;-51
2023/10/28 00:08:16;;;;;;;15.57;7.25;;;25.70;99.90;;;;;;4974408;28;20494;-51
2023/10/28 00:10:42;;;;;;;12.65;5.90;;;25.60;99.90;;;;;;4974463;28;20034;-51
2023/10/28 00:13:08;;;;;;;13.05;6.00;;;25.70;99.90;;;;;;4974096;28;20130;-51
2023/10/28 00:15:35;;;;;;;12.02;6.57;;;25.60;99.90;;;;;;4974157;28;20179;-51
2023/10/28 00:18:02;;;;;;;13.18;5.93;;;25.60;99.90;;;;;;4974133;28;20031;-51
2023/10/28 00:20:29;;;;;;;9.77;5.85;;;25.60;99.90;;;;;;4956669;28;20023;-51
2023/10/28 00:22:57;;;;;;;12.73;7.00;;;25.60;99.90;;;;;;4973863;28;20058;-51
2023/10/28 00:25:25;;;;;;;12.90;6.43;;;25.60;99.90;;;;;;4974041;28;20018;-51
2023/10/28 00:27:56;;;;;;;11.05;5.82;;;25.60;99.90;;;;;;4973854;28;20023;-51
2023/10/28 00:30:22;;;;;;;9.80;5.78;;;25.60;99.90;;;;;;4973827;28;20383;-52
2023/10/28 00:32:50;;;;;;;12.13;6.05;;;25.60;99.90;;;;;;4973818;28;20558;-51
2023/10/28 00:35:16;;;;;;;10.98;6.25;;;25.60;99.90;;;;;;4973790;28;20107;-51
2023/10/28 00:37:42;;;;;;;9.10;5.75;;;25.50;99.90;;;;;;4973592;28;20459;-51
2023/10/28 00:40:08;;;;;;;9.45;5.38;;;25.50;99.90;;;;;;4973744;28;20019;-51
2023/10/28 00:42:35;;;;;;;9.82;5.85;;;25.50;99.90;;;;;;4973838;28;20078;-51
2023/10/28 00:45:06;;;;;;;10.13;5.10;;;25.50;99.90;;;;;;4973673;28;20034;-51
2023/10/28 00:47:35;;;;;;;10.35;5.70;;;25.50;99.90;;;;;;4973651;28;20049;-51
2023/10/28 00:50:05;;;;;;;10.23;5.10;;;25.40;99.90;;;;;;4973801;28;20438;-51
2023/10/28 00:52:31;;;;;;;9.20;5.15;;;25.40;99.90;;;;;;4973641;28;20074;-51
2023/10/28 00:54:57;;;;;;;9.00;4.88;;;25.40;99.90;;;;;;4973741;28;20035;-51
2023/10/28 00:57:25;;;;;;;7.95;5.00;;;25.40;99.90;;;;;;4973667;28;20427;-51
2023/10/28 00:59:53;;;;;;;8.57;4.93;;;25.40;99.90;;;;;;4973649;28;20105;-51
2023/10/28 01:02:19;;;;;;;8.85;5.10;;;25.40;99.90;;;;;;4973851;28;20062;-51
2023/10/28 01:04:45;;;;;;;9.35;5.22;;;25.40;99.90;;;;;;4973639;28;20019;-51
2023/10/28 01:07:11;;;;;;;10.38;5.38;;;25.40;99.90;;;;;;4973606;28;20066;-51
2023/10/28 01:09:46;;;;;;;9.98;5.53;;;25.40;99.90;;;;;;4973261;28;20150;-52
2023/10/28 01:12:15;;;;;;;10.93;5.00;;;25.40;99.90;;;;;;4973550;28;20039;-51
2023/10/28 01:14:42;;;;;;;13.75;5.35;;;25.40;99.90;;;;;;4973429;28;20061;-51
2023/10/28 01:17:09;;;;;;;8.77;5.07;;;25.40;99.90;;;;;;4973840;28;20487;-51
2023/10/28 01:19:35;;;;;;;;;;;25.30;99.90;;;;;;4956490;28;20452;-51
2023/10/28 01:22:01;;;;;;;7.85;4.35;;;25.30;99.90;;;;;;4973227;28;20004;-51
2023/10/28 01:24:32;;;;;;;9.45;4.90;;;25.40;99.90;;;;;;4973254;28;20046;-51
2023/10/28 01:26:59;;;;;;;10.07;4.95;;;25.30;99.90;;;;;;4973389;28;20015;-51
2023/10/28 01:29:25;;;;;;;7.95;4.18;;;25.30;99.90;;;;;;4973216;28;20082;-51
2023/10/28 01:31:51;;;;;;;8.23;4.50;;;25.30;99.90;;;;;;4973293;28;20078;-52
2023/10/28 01:34:17;;;;;;;9.00;4.65;;;25.30;99.90;;;;;;4973406;28;20050;-51
2023/10/28 01:36:45;;;;;;;9.05;5.05;;;25.20;99.90;;;;;;4973384;28;20023;-51
2023/10/28 01:39:12;;;;;;;;;;;25.20;99.90;;;;;;4973590;28;20023;-51
2023/10/28 01:41:38;;;;;;;8.23;4.40;;;25.30;99.90;;;;;;4973198;28;20259;-51
2023/10/28 01:44:05;;;;;;;9.38;3.90;;;25.20;99.90;;;;;;4973326;28;20386;-51
2023/10/28 01:46:31;;;;;;;8.50;4.28;;;25.20;99.90;;;;;;4973138;28;20019;-51
2023/10/28 01:48:56;;;;;;;7.38;4.40;;;25.20;99.90;;;;;;4973126;28;20538;-52
2023/10/28 01:51:22;;;;;;;5.80;3.80;;;25.20;99.90;;;;;;4976124;28;20027;-51
2023/10/28 01:53:48;;;;;;;8.73;4.50;;;25.20;99.90;;;;;;4976939;28;20436;-51
2023/10/28 01:56:15;;;;;;;6.90;3.43;;;25.20;99.90;;;;;;4977031;28;20488;-51
2023/10/28 01:58:41;;;;;;;7.85;4.22;;;25.20;99.90;;;;;;4976614;28;20559;-51
2023/10/28 02:01:07;;;;;;;7.03;3.90;;;25.10;99.90;;;;;;5008696;23;20057;-45
2023/10/28 02:03:32;;;;;;;6.68;3.53;;;25.10;99.90;;;;;;5035558;28;20052;-44
2023/10/28 02:05:58;;;;;;;9.60;4.63;;;25.10;99.90;;;;;;5035499;28;20432;-45
2023/10/28 02:08:24;;;;;;;8.52;4.32;;;25.10;99.90;;;;;;5035392;28;20105;-45
2023/10/28 02:10:50;;;;;;;8.27;4.07;;;25.10;99.90;;;;;;5035238;28;20021;-44
2023/10/28 02:13:15;;;;;;;8.40;3.55;;;25.10;99.90;;;;;;5035568;28;20418;-45
2023/10/28 02:15:43;;;;;;;5.50;3.45;;;25.10;99.90;;;;;;5034348;28;20048;-44
2023/10/28 02:18:09;;;;;;;6.63;3.72;;;25.10;99.90;;;;;;5016942;28;20464;-44
2023/10/28 02:20:36;;;;;;;8.57;3.78;;;25.00;99.90;;;;;;5024647;28;20097;-45
2023/10/28 02:23:02;;;;;;;6.25;3.28;;;25.00;99.90;;;;;;5034771;28;20481;-45
2023/10/28 02:25:28;;;;;;;4.80;2.85;;;25.00;99.90;;;;;;5034574;28;20030;-44
2023/10/28 02:27:54;;;;;;;5.60;3.17;;;25.00;99.90;;;;;;5034802;28;20390;-44
2023/10/28 02:30:20;;;;;;;6.35;3.75;;;25.00;99.90;;;;;;5034883;28;20025;-44
2023/10/28 02:32:45;;;;;;;6.35;3.35;;;25.00;99.90;;;;;;5034518;28;20037;-44
2023/10/28 02:35:11;;;;;;;7.75;3.80;;;25.00;99.90;;;;;;5034941;28;20032;-44
2023/10/28 02:37:39;;;;;;;6.95;3.70;;;25.00;99.90;;;;;;5034006;28;20049;-45
2023/10/28 02:40:08;;;;;;;5.47;3.40;;;25.00;99.90;;;;;;5033571;28;20028;-45
2023/10/28 02:42:35;;;;;;;4.68;2.80;;;24.90;99.90;;;;;;5034808;28;20068;-44
2023/10/28 02:45:01;;;;;;;4.83;3.17;;;24.90;99.90;;;;;;5033898;28;20032;-44
2023/10/28 02:47:29;;;;;;;4.88;3.35;;;24.90;99.90;;;;;;5034673;28;20259;-45
2023/10/28 02:49:55;;;;;;;5.10;2.63;;;24.90;99.90;;;;;;5034767;28;20393;-44
2023/10/28 02:52:21;;;;;;;6.20;3.10;;;24.90;99.90;;;;;;5034656;28;20034;-44
2023/10/28 02:54:47;;;;;;;7.22;3.58;;;24.80;99.90;;;;;;5034824;28;20025;-45
2023/10/28 02:57:13;;;;;;;5.93;2.63;;;24.90;99.90;;;;;;5034412;28;20040;-44
2023/10/28 02:59:38;;;;;;;8.15;3.53;;;24.80;99.90;;;;;;5034299;28;20404;-47
2023/10/28 03:02:04;;;;;;;5.22;2.67;;;24.80;99.90;;;;;;5030747;23;20053;-57
2023/10/28 03:04:30;;;;;;;6.47;3.42;;;24.80;99.90;;;;;;5014529;28;20034;-57
2023/10/28 03:06:56;;;;;;;5.75;2.45;;;24.80;99.90;;;;;;5014597;28;20030;-57
2023/10/28 03:09:21;;;;;;;6.47;3.17;;;24.80;99.90;;;;;;5014612;28;20222;-57
2023/10/28 03:11:47;;;;;;;6.32;3.13;;;24.80;99.90;;;;;;5014736;28;20030;-57
2023/10/28 03:14:13;;;;;;;5.43;2.92;;;24.70;99.90;;;;;;5014368;28;20037;-57
2023/10/28 03:16:39;;;;;;;4.88;2.97;;;24.70;99.90;;;;;;5014306;28;20052;-57
2023/10/28 03:19:05;;;;;;;6.72;3.13;;;24.70;99.90;;;;;;5014287;28;20040;-57
2023/10/28 03:21:30;;;;;;;5.20;2.67;;;24.70;99.90;;;;;;5014152;28;20033;-57
2023/10/28 03:23:56;;;;;;;5.70;3.10;;;24.70;99.90;;;;;;5014050;28;20386;-56
2023/10/28 03:26:22;;;;;;;4.78;2.40;;;24.70;99.90;;;;;;4980551;28;20040;-57
2023/10/28 03:28:49;;;;;;;5.72;2.70;;;24.70;99.90;;;;;;5014163;28;20057;-57
2023/10/28 03:31:15;;;;;;;5.60;3.08;;;24.70;99.90;;;;;;5013901;28;20037;-57
2023/10/28 03:33:41;;;;;;;4.28;2.53;;;24.70;99.90;;;;;;5013932;28;20033;-57
2023/10/28 03:36:10;;;;;;;5.30;2.30;;;24.70;99.90;;;;;;5012670;28;20022;-57
2023/10/28 03:38:37;;;;;;;3.88;2.17;;;24.70;99.90;;;;;;5013922;28;20109;-57
2023/10/28 03:41:10;;;;;;;8.13;3.25;;;24.70;99.90;;;;;;5013908;28;20521;-57
2023/10/28 03:43:36;;;;;;;5.03;2.30;;;24.70;99.90;;;;;;5013821;28;20022;-57
2023/10/28 03:46:03;;;;;;;6.03;2.97;;;24.60;99.90;;;;;;5013745;28;20473;-57
2023/10/28 03:48:29;;;;;;;5.10;2.45;;;24.60;99.90;;;;;;5013698;28;20034;-57
2023/10/28 03:51:05;;;;;;;5.78;2.13;;;24.60;99.90;;;;;;5013630;28;20037;-57
2023/10/28 03:53:31;;;;;;;3.75;2.10;;;24.60;99.90;;;;;;5013679;28;20034;-57
2023/10/28 03:55:57;;;;;;;5.97;2.92;;;24.60;99.90;;;;;;5013578;28;20026;-57
2023/10/28 03:58:23;;;;;;;5.00;2.22;;;24.60;99.90;;;;;;5013783;28;20022;-57
2023/10/28 04:00:53;;;;;;;4.10;2.20;;;24.50;99.90;;;;;;5013991;28;20049;-57
2023/10/28 04:03:23;;;;;;;3.70;2.33;;;24.50;99.90;;;;;;5013441;28;20104;-57
2023/10/28 04:05:54;;;;;;;7.65;2.47;;;24.50;99.90;;;;;;5013381;28;20421;-57
2023/10/28 04:08:19;;;;;;;4.00;2.38;;;24.50;99.90;;;;;;5013352;28;20018;-57
2023/10/28 04:10:46;;;;;;;3.55;2.10;;;24.50;99.90;;;;;;5013267;28;20382;-57
2023/10/28 04:13:15;;;;;;;5.40;2.40;;;24.50;99.90;;;;;;5012484;28;20033;-57
2023/10/28 04:15:41;;;;;;;4.85;2.35;;;24.50;99.90;;;;;;5013246;28;20365;-57
2023/10/28 04:18:07;;;;;;;6.50;2.75;;;24.50;99.90;;;;;;4995429;28;20478;-57
2023/10/28 04:20:34;;;;;;;5.85;2.38;;;24.50;99.90;;;;;;5013060;28;20021;-56
2023/10/28 04:23:00;;;;;;;8.82;2.58;;;24.50;99.90;;;;;;5013007;28;20026;-57
2023/10/28 04:25:27;;;;;;;4.05;2.00;;;24.40;99.90;;;;;;4995788;28;20037;-57
2023/10/28 04:27:53;;;;;;;4.25;2.25;;;24.40;99.90;;;;;;5013239;28;20026;-59
2023/10/28 04:30:19;;;;;;;7.78;3.33;;;24.40;99.90;;;;;;5012785;28;20476;-57
2023/10/28 04:32:45;;;;;;;5.72;2.05;;;24.40;99.90;;;;;;5012628;28;20108;-59
2023/10/28 04:35:10;;;;;;;7.40;2.15;;;24.40;99.90;;;;;;5012846;28;20022;-57
2023/10/28 04:37:36;;;;;;;4.38;1.70;;;24.40;99.90;;;;;;5012939;28;20033;-58
2023/10/28 04:40:05;;;;;;;8.15;2.95;;;24.40;99.90;;;;;;5012067;28;20014;-58
2023/10/28 04:42:31;;;;;;;3.80;2.03;;;24.40;99.90;;;;;;5011484;28;20322;-58
2023/10/28 04:44:57;;;;;;;4.18;2.13;;;24.40;99.90;;;;;;5012562;28;20084;-58
2023/10/28 04:47:24;;;;;;;4.50;2.58;;;24.40;99.90;;;;;;5011456;28;20487;-59
2023/10/28 04:49:50;;;;;;;3.97;1.85;;;24.30;99.90;;;;;;5003513;28;20474;-57
2023/10/28 04:52:16;;;;;;;5.43;2.33;;;24.40;99.90;;;;;;5011314;28;20038;-57
2023/10/28 04:54:42;;;;;;;5.63;2.30;;;24.30;99.90;;;;;;5011964;28;20025;-57
2023/10/28 04:57:09;;;;;;;3.50;1.92;;;24.30;99.90;;;;;;5011950;28;20580;-59
2023/10/28 04:59:35;;;;;;;;;;;24.30;99.90;;;;;;5012739;28;20044;-57
2023/10/28 05:02:01;;;;;;;5.70;2.17;;;24.30;99.90;;;;;;5011441;28;19996;-60
2023/10/28 05:04:27;;;;;;;4.57;2.33;;;24.30;99.90;;;;;;5012642;28;20033;-58
2023/10/28 05:06:53;;;;;;;5.15;2.17;;;24.30;99.90;;;;;;5012480;28;20018;-59
2023/10/28 05:09:20;;;;;;;3.95;2.15;;;24.30;99.90;;;;;;4994640;28;20056;-57
2023/10/28 05:11:56;;;;;;;6.30;2.22;;;24.30;99.90;;;;;;5011443;28;20041;-57
2023/10/28 05:14:23;;;;;;;4.05;2.20;;;24.30;99.90;;;;;;5012300;28;20041;-57
2023/10/28 05:16:50;;;;;;;5.07;2.05;;;24.30;99.90;;;;;;5012416;28;20551;-58
2023/10/28 05:19:18;;;;;;;6.53;2.17;;;24.30;99.90;;;;;;5011183;28;20034;-58
2023/10/28 05:21:44;;;;;;;5.25;1.88;;;24.30;99.90;;;;;;5010860;28;20022;-58
2023/10/28 05:24:10;;;;;;;6.40;2.30;;;24.20;99.90;;;;;;5013643;28;20033;-58
2023/10/28 05:26:36;;;;;;;5.30;2.53;;;24.20;99.90;;;;;;5016529;28;20030;-58
2023/10/28 05:29:02;;;;;;;4.22;2.30;;;24.30;99.90;;;;;;5016235;28;20112;-57
2023/10/28 05:31:28;;;;;;;5.95;2.28;;;24.30;99.90;;;;;;5015116;28;20121;-57
2023/10/28 05:33:54;;;;;;;5.63;1.92;;;24.20;99.90;;;;;;5016095;28;20126;-57
2023/10/28 05:36:20;;;;;;;6.88;2.85;;;24.20;99.90;;;;;;5016227;28;20400;-57
2023/10/28 05:38:46;;;;;;;4.22;2.33;;;24.20;99.90;;;;;;5016094;28;20036;-57
2023/10/28 05:41:12;;;;;;;4.00;2.30;;;24.20;99.90;;;;;;5016097;28;20025;-57
2023/10/28 05:43:38;;;;;;;4.53;2.45;;;24.20;99.90;;;;;;5015952;28;20030;-57
2023/10/28 05:46:04;;;;;;;9.25;2.42;;;24.20;99.90;;;;;;5015934;28;20052;-58
2023/10/28 05:48:32;;;;;;;4.78;1.95;;;24.20;99.90;;;;;;5016104;28;20494;-57
2023/10/28 05:50:58;;;;;;;6.38;2.53;;;24.20;99.90;;;;;;5016119;28;20018;-57
2023/10/28 05:53:24;;;;;;;7.00;2.17;;;24.20;99.90;;;;;;5015701;28;20109;-57
2023/10/28 05:55:50;;;;;;;4.75;2.40;;;24.20;99.90;;;;;;5015712;28;20026;-57
2023/10/28 05:58:16;;;;;;;6.50;2.90;;;24.20;99.90;;;;;;5015716;28;20054;-57
2023/10/28 06:00:42;;;;;;;4.15;2.40;;;24.20;99.90;;;;;;4998085;28;20037;-58
2023/10/28 06:03:09;;;;;;;3.95;2.20;;;24.20;99.90;;;;;;5015708;28;20080;-58
2023/10/28 06:05:38;;;;;;;8.82;3.05;;;24.10;99.90;;;;;;5015733;28;20112;-58
2023/10/28 06:08:03;;;;;;;5.82;1.98;;;24.10;99.90;;;;;;5015630;28;20026;-57
2023/10/28 06:10:29;;;;;;;5.05;2.88;;;24.10;99.90;;;;;;5015643;28;20018;-58
2023/10/28 06:12:55;;;;;;;4.63;2.78;;;24.10;99.90;;;;;;5015372;28;20077;-59
2023/10/28 06:15:24;;;;;;;6.10;2.88;;;24.10;99.90;;;;;;5015449;28;20080;-57
2023/10/28 06:17:50;;;;;;;7.47;2.45;;;24.10;99.90;;;;;;5015231;28;20026;-58
2023/10/28 06:20:16;;;;;;;14.90;2.75;;;24.10;99.90;;;;;;5014102;28;20505;-58
2023/10/28 06:22:42;;;;;;;5.72;2.85;;;24.10;99.90;;;;;;5015293;28;20053;-58
2023/10/28 06:25:08;;;;;;;5.22;2.60;;;24.10;99.90;;;;;;4981429;28;20030;-59
2023/10/28 06:27:34;;;;;;;7.45;2.50;;;24.10;99.90;;;;;;5015239;28;20040;-58
2023/10/28 06:30:00;;;;;;;5.43;2.75;;;24.10;99.90;;;;;;5015298;28;20046;-59
2023/10/28 06:32:29;;;;;;;6.32;2.20;;;24.10;99.90;;;;;;5015017;28;20037;-58
2023/10/28 06:34:55;;;;;;;6.07;2.55;;;24.10;99.90;;;;;;5014794;28;20040;-59
2023/10/28 06:37:21;;;;;;;5.35;2.60;;;24.10;99.90;;;;;;5014265;28;20025;-59
2023/10/28 06:39:47;;;;;;;4.05;2.08;;;24.10;99.90;;;;;;5014886;28;20026;-58
2023/10/28 06:42:13;;;;;;;6.55;2.70;;;24.00;99.90;;;;;;5014858;28;20021;-56
2023/10/28 06:44:39;;;;;;;5.40;2.70;;;24.10;99.90;;;;;;5014962;28;20026;-56
2023/10/28 06:47:06;;;;;;;8.02;3.10;;;24.00;99.90;;;;;;5015002;28;20033;-57
2023/10/28 06:49:31;;;;;;;9.27;3.15;;;24.00;99.90;;;;;;5015109;28;20026;-56
2023/10/28 06:51:58;;;;;;;5.07;2.75;;;24.00;99.90;;;;;;5014644;28;20458;-56
2023/10/28 06:54:24;;;;;;;9.88;3.35;;;24.00;99.90;;;;;;4997051;28;20057;-56
2023/10/28 06:56:51;;;;;;;8.93;3.17;;;24.00;99.90;;;;;;5014607;28;20026;-57
2023/10/28 06:59:17;;;;;;;5.72;3.05;;;24.00;99.90;;;;;;5014572;28;20022;-56
2023/10/28 07:01:43;;;;;;;5.88;3.60;;;24.00;99.90;;;;;;5014304;28;20449;-56
2023/10/28 07:04:10;;;;;;;6.65;4.50;;;24.10;99.90;;;;;;5014563;28;20508;-57
2023/10/28 07:06:36;;;;;;;9.55;4.82;;;24.00;99.90;;;;;;5014410;28;20030;-56
2023/10/28 07:09:03;;;;;;;7.65;4.82;;;24.00;99.90;;;;;;5014598;28;20544;-56
2023/10/28 07:11:29;;;;;;;9.63;5.55;;;24.10;99.90;;;;;;5014233;28;20513;-56
2023/10/28 07:13:55;;;;;;;10.50;6.18;;;24.10;99.90;;;;;;5014314;28;20579;-56
2023/10/28 07:16:21;;;;;;;11.25;6.43;;;24.10;99.90;;;;;;5012983;28;20486;-58
2023/10/28 07:18:48;;;;;;;11.48;6.28;;;24.10;99.90;;;;;;5014319;28;20133;-57
2023/10/28 07:21:14;;;;;;;14.88;7.32;;;24.10;99.90;;;;;;4997057;28;20088;-57
2023/10/28 07:23:41;;;;;;;11.43;6.57;;;24.10;99.90;;;;;;5014087;28;20037;-57
2023/10/28 07:26:06;;;;;;;9.85;6.68;;;24.10;99.90;;;;;;5014124;28;20490;-57
2023/10/28 07:28:36;;;;;;;9.65;6.50;;;24.20;99.90;;;;;;5014277;28;20030;-57
2023/10/28 07:31:02;;;;;;;13.25;6.95;;;24.20;99.90;;;;;;5014133;28;20018;-57
2023/10/28 07:33:28;;;;;;;9.55;6.93;;;24.20;99.90;;;;;;5013951;28;20066;-57
2023/10/28 07:35:54;;;;;;;15.18;8.35;;;24.20;99.90;;;;;;5013846;28;20025;-57
2023/10/28 07:38:20;;;;;;;14.02;7.70;;;24.30;99.90;;;;;;5012453;28;20030;-57
2023/10/28 07:40:47;;;;;;;13.17;8.17;;;24.30;99.90;;;;;;5013876;28;20026;-57
2023/10/28 07:43:15;;;;;;;11.25;7.60;;;24.30;99.90;;;;;;5013735;28;20263;-58
2023/10/28 07:45:42;;;;;;;11.88;7.80;;;24.40;99.90;;;;;;5013539;28;20025;-58
2023/10/28 07:48:09;;;;;;;13.20;8.70;;;24.40;99.90;;;;;;5013748;28;20053;-57
2023/10/28 07:50:38;;;;;;;12.45;8.00;;;24.40;99.90;;;;;;5013726;28;20030;-58
2023/10/28 07:53:05;;;;;;;17.52;8.45;;;24.50;99.90;;;;;;5013955;28;20034;-56
2023/10/28 07:55:31;;;;;;;11.82;7.90;;;24.50;99.90;;;;;;4996158;28;20101;-57
2023/10/28 07:57:57;;;;;;;11.65;7.18;;;24.50;99.90;;;;;;5013395;28;20084;-57
2023/10/28 08:00:23;;;;;;;13.68;7.75;;;24.50;99.90;;;;;;5013262;28;20022;-56
2023/10/28 08:02:49;;;;;;;17.08;8.63;;;24.60;99.90;;;;;;5013388;28;20018;-56
2023/10/28 08:05:16;;;;;;;13.18;7.53;;;24.60;99.90;;;;;;5013295;28;20389;-58
2023/10/28 08:07:42;;;;;;;13.73;7.88;;;24.60;99.90;;;;;;5013325;28;20029;-57
2023/10/28 08:10:09;;;;;;;12.15;8.32;;;24.60;99.90;;;;;;5013540;28;20025;-56
2023/10/28 08:12:36;;;;;;;9.80;6.85;;;24.70;99.90;;;;;;4995814;28;20095;-57
2023/10/28 08:15:07;;;;;;;11.02;7.15;;;24.70;99.90;;;;;;5013104;28;20033;-57
2023/10/28 08:17:33;;;;;;;13.73;8.00;;;24.70;99.90;;;;;;5013130;28;20049;-58
2023/10/28 08:19:59;;;;;;;10.43;7.28;;;24.80;99.90;;;;;;5013057;28;20022;-58
2023/10/28 08:22:25;;;;;;;13.07;7.38;;;24.80;99.90;;;;;;5013155;28;20077;-58
2023/10/28 08:24:51;;;;;;;12.15;7.40;;;24.80;99.90;;;;;;5013132;28;20025;-58
2023/10/28 08:27:17;;;;;;;10.15;6.93;;;24.90;99.90;;;;;;5013088;28;20478;-58
2023/10/28 08:29:43;;;;;;;11.07;6.90;;;24.90;99.90;;;;;;5012897;28;20022;-58
2023/10/28 08:32:10;;;;;;;13.50;6.72;;;24.90;99.90;;;;;;4995328;28;20041;-57
2023/10/28 08:34:36;;;;;;;11.13;6.57;;;24.90;99.90;;;;;;4995452;28;20030;-58
2023/10/28 08:37:03;;;;;;;11.98;6.78;;;25.00;99.90;;;;;;5012866;28;20032;-57
2023/10/28 08:39:31;;;;;;;11.10;6.88;;;25.00;99.90;;;;;;5012874;28;20545;-58
2023/10/28 08:42:04;;;;;;;15.27;7.35;;;25.00;99.90;;;;;;5012800;28;20389;-58
2023/10/28 08:44:32;;;;;;;10.00;6.70;;;25.00;99.90;;;;;;5012694;28;20165;-58
2023/10/28 08:46:59;;;;;;;10.10;6.35;;;25.10;99.90;;;;;;5012672;28;20034;-58
2023/10/28 08:49:27;;;;;;;11.48;7.15;;;25.10;99.90;;;;;;5012706;28;20024;-58
2023/10/28 08:52:01;;;;;;;12.70;6.15;;;25.10;99.90;;;;;;5012599;28;20041;-58
2023/10/28 08:54:28;;;;;;;10.70;6.63;;;25.20;99.90;;;;;;5012546;28;20068;-58
2023/10/28 08:57:00;;;;;;;11.93;6.53;;;25.20;99.90;;;;;;5012522;28;20049;-58
2023/10/28 08:59:27;;;;;;;13.93;6.22;;;25.20;99.90;;;;;;5012080;28;20029;-58
2023/10/28 09:01:54;;;;;;;9.07;6.27;;;25.20;99.90;;;;;;5012377;28;20545;-57
2023/10/28 09:04:21;;;;;;;11.23;6.82;;;25.30;99.90;;;;;;5012595;28;20026;-57
2023/10/28 09:06:53;;;;;;;9.68;5.78;;;25.30;99.90;;;;;;5012490;28;20026;-57
2023/10/28 09:09:21;;;;;;;17.77;6.30;;;25.30;99.90;;;;;;5012518;28;20053;-57
2023/10/28 09:11:48;;;;;;;7.78;5.15;;;25.30;99.90;;;;;;5012294;28;20433;-57
2023/10/28 09:14:14;;;;;;;9.70;6.13;;;25.40;99.90;;;;;;5012413;28;20026;-57
2023/10/28 09:16:40;;;;;;;9.68;5.97;;;25.40;99.90;;;;;;5012580;28;20116;-57
2023/10/28 09:19:20;;;;;;;11.48;5.85;;;25.40;99.90;;;;;;5012296;28;20026;-57
2023/10/28 09:21:49;;;;;;;10.27;5.32;;;25.40;99.90;;;;;;4995120;28;20026;-57
2023/10/28 09:24:16;;;;;;;8.07;5.25;;;25.50;99.90;;;;;;5012282;28;20029;-57
2023/10/28 09:26:42;;;;;;;9.10;5.17;;;25.50;99.90;;;;;;5012417;28;20474;-57
2023/10/28 09:29:08;;;;;;;8.90;5.10;;;25.60;99.90;;;;;;5012488;28;20018;-57
2023/10/28 09:31:34;;;;;;;7.28;4.97;;;25.60;99.90;;;;;;5012095;28;20483;-57
2023/10/28 09:34:01;;;;;;;12.05;5.60;;;25.60;99.90;;;;;;5012159;28;20418;-58
2023/10/28 09:36:30;;;;;;;9.70;5.35;;;25.60;99.90;;;;;;5012039;28;20030;-58
2023/10/28 09:38:56;;;;;;;9.32;4.88;;;25.70;99.90;;;;;;5012122;28;20544;-58
2023/10/28 09:41:23;;;;;;;9.50;5.85;;;25.70;99.90;;;;;;5012114;28;20052;-57
2023/10/28 09:43:49;;;;;;;10.63;5.37;;;25.80;99.90;;;;;;5012118;28;20367;-57
2023/10/28 09:46:20;;;;;;;6.65;4.57;;;25.80;99.90;;;;;;5011961;28;20018;-58
2023/10/28 09:48:48;;;;;;;7.60;4.93;;;25.80;99.90;;;;;;5011650;28;20080;-58
2023/10/28 09:51:20;;;;;;;8.75;4.47;;;25.90;99.90;;;;;;5011650;28;20022;-57
2023/10/28 09:53:53;;;;;;;8.07;4.78;;;25.90;99.90;;;;;;4994497;28;20038;-57
2023/10/28 09:56:21;;;;;;;8.45;4.32;;;26.00;99.90;;;;;;4995167;28;20025;-58
2023/10/28 09:59:00;;;;;;;8.70;4.70;;;26.00;99.90;;;;;;5011709;28;20108;-58
2023/10/28 10:01:35;;;;;;;6.57;4.55;;;26.10;99.90;;;;;;5011780;28;20046;-58
2023/10/28 10:04:06;;;;;;;6.30;4.00;;;26.10;99.90;;;;;;5011726;28;20414;-57
2023/10/28 10:06:35;;;;;;;8.98;5.07;;;26.20;99.90;;;;;;5011754;28;20022;-59
2023/10/28 10:09:01;;;;;;;8.85;4.65;;;26.20;99.90;;;;;;5011721;28;20479;-57
2023/10/28 10:11:27;;;;;;;9.55;5.13;;;26.20;99.90;;;;;;5013339;28;20045;-57
2023/10/28 10:13:56;;;;;;;6.07;4.25;;;26.30;99.90;;;;;;5015406;28;20033;-57
2023/10/28 10:16:49;;;;;;;7.40;4.68;;;26.30;99.90;;;;;;5015187;28;20024;-57
2023/10/28 10:19:34;;;;;;;8.43;4.95;;;26.40;99.90;;;;;;5015401;28;20032;-58
2023/10/28 10:22:03;;;;;;;9.52;4.75;;;26.40;99.90;;;;;;5013959;28;20034;-58
2023/10/28 10:24:29;;;;;;;9.35;5.30;;;26.40;99.90;;;;;;5015144;28;20489;-59
2023/10/28 10:26:56;;;;;;;8.82;5.38;;;26.50;99.90;;;;;;5015061;28;20112;-58
2023/10/28 10:29:26;;;;;;;9.50;5.82;;;26.50;99.90;;;;;;5014978;28;20020;-58
2023/10/28 10:31:52;;;;;;;12.40;7.05;;;26.50;99.90;;;;;;5015099;28;20498;-57
2023/10/28 10:34:39;;;;;;;15.57;7.90;;;26.50;99.90;;;;;;4997493;28;20036;-58
2023/10/28 10:37:06;;;;;;;12.93;7.63;;;26.60;99.90;;;;;;5014905;28;20088;-58
2023/10/28 10:39:46;;;;;;;14.68;8.65;;;26.60;99.90;;;;;;5014971;28;20022;-57
2023/10/28 10:42:13;;;;;;;16.63;10.30;;;26.70;99.90;;;;;;5015020;28;20037;-57
2023/10/28 10:44:40;;;;;;;16.33;9.85;;;26.70;99.90;;;;;;5014776;28;20026;-57
2023/10/28 10:47:08;;;;;;;15.60;10.50;;;26.70;99.90;;;;;;5014793;28;20034;-57
2023/10/28 10:49:36;;;;;;;17.00;10.75;;;26.80;99.90;;;;;;5014623;28;20050;-57
2023/10/28 10:52:03;;;;;;;19.13;11.38;;;26.80;99.90;;;;;;5014570;28;20034;-57
2023/10/28 10:54:38;;;;;;;19.08;13.10;;;26.80;99.90;;;;;;4997074;28;20497;-57
2023/10/28 10:57:06;;;;;;;21.77;14.00;;;26.80;99.90;;;;;;5014644;28;20072;-57
2023/10/28 10:59:38;;;;;;;17.15;11.85;;;26.90;99.90;;;;;;5014491;28;20482;-57
2023/10/28 11:02:04;;;;;;;19.08;13.23;;;26.90;99.90;;;;;;5014267;28;20409;-57
2023/10/28 11:04:32;;;;;;;20.20;13.77;;;26.90;99.90;;;;;;5014250;28;20050;-57
2023/10/28 11:06:58;;;;;;;21.60;13.80;;;26.90;99.90;;;;;;5014475;28;20032;-57
2023/10/28 11:09:24;;;;;;;21.42;13.45;;;27.00;99.90;;;;;;4997062;28;20510;-57
2023/10/28 11:11:50;;;;;;;19.05;12.82;;;27.00;99.90;;;;;;5014231;28;20156;-57
2023/10/28 11:14:16;;;;;;;20.85;13.60;;;27.00;99.90;;;;;;5014545;28;20032;-57
2023/10/28 11:16:43;;;;;;;23.00;14.38;;;27.00;99.90;;;;;;5014198;28;20025;-57
2023/10/28 11:19:11;;;;;;;24.30;14.27;;;27.00;99.90;;;;;;5014154;28;20033;-57
2023/10/28 11:21:39;;;;;;;25.20;14.80;;;27.00;99.90;;;;;;5013880;28;20037;-57
2023/10/28 11:24:07;;;;;;;22.35;15.60;;;27.10;99.90;;;;;;5013960;28;20079;-57
2023/10/28 11:26:35;;;;;;;23.05;13.68;;;27.10;99.90;;;;;;5013876;28;20387;-56
2023/10/28 11:29:00;;;;;;;;;;;27.10;99.90;;;;;;5014444;28;20022;-57
2023/10/28 11:31:31;;;;;;;17.65;12.35;;;27.20;99.90;;;;;;5013774;28;19912;-56
2023/10/28 11:34:00;;;;;;;18.63;11.90;;;27.20;99.90;;;;;;5013539;28;20041;-57
2023/10/28 11:36:27;;;;;;;20.08;12.40;;;27.20;99.90;;;;;;5013726;28;20029;-56
2023/10/28 11:38:56;;;;;;;16.58;11.40;;;27.20;99.90;;;;;;4996314;28;20161;-57
2023/10/28 11:41:22;;;;;;;18.08;11.75;;;27.20;99.90;;;;;;5013206;28;20022;-57
2023/10/28 11:43:52;;;;;;;17.90;11.45;;;27.30;99.90;;;;;;5013176;28;20544;-56
2023/10/28 11:46:18;;;;;;;18.17;11.35;;;27.30;99.90;;;;;;5013954;28;20026;-56
2023/10/28 11:48:46;;;;;;;18.50;11.38;;;27.30;99.90;;;;;;5013607;28;20022;-57
2023/10/28 11:51:15;;;;;;;14.88;9.52;;;27.30;99.90;;;;;;5013495;28;20026;-60
2023/10/28 11:53:47;;;;;;;17.75;13.38;;;27.30;99.90;;;;;;5012278;28;20033;-58
2023/10/28 11:56:15;;;;;;;15.30;10.82;;;27.30;99.90;;;;;;5013391;28;20064;-61
2023/10/28 11:58:42;;;;;;;15.98;10.63;;;27.20;99.90;;;;;;5013010;28;20026;-60
2023/10/28 12:01:08;;;;;;;12.73;5.72;;;27.10;99.90;;;;;;5013324;28;20046;-59
2023/10/28 12:03:34;;;;;;;8.05;2.78;;;27.10;99.90;;;;;;5011334;28;20120;-60
2023/10/28 12:05:59;;;;;;;8.38;3.55;;;27.00;99.90;;;;;;5012063;28;20046;-58
2023/10/28 12:08:25;;;;;;;8.68;3.60;;;27.00;99.90;;;;;;5013461;28;20069;-59
2023/10/28 12:10:51;;;;;;;12.60;5.35;;;26.80;99.90;;;;;;5013057;28;20018;-59
2023/10/28 12:13:20;;;;;;;11.18;4.13;;;26.70;99.90;;;;;;5013362;28;20032;-59
2023/10/28 12:15:46;;;;;;;11.32;4.85;;;26.60;99.90;;;;;;5012728;28;20026;-59
2023/10/28 12:18:12;;;;;;;17.23;9.93;;;26.60;99.90;;;;;;5012485;28;20474;-60
2023/10/28 12:20:38;;;;;;;37.67;22.25;;;26.70;99.90;;;;;;5011546;28;20025;-59
2023/10/28 12:23:04;;;;;;;28.40;19.20;;;26.70;99.90;;;;;;5012554;28;20026;-58
2023/10/28 12:25:31;;;;;;;23.80;14.38;;;26.70;99.90;;;;;;5013081;28;20056;-58
2023/10/28 12:27:57;;;;;;;26.60;14.23;;;26.80;99.90;;;;;;5011693;28;20161;-57
2023/10/28 12:30:23;;;;;;;15.60;6.97;;;26.80;99.90;;;;;;5013008;28;20069;-58
2023/10/28 12:32:49;;;;;;;8.98;4.07;;;26.80;99.90;;;;;;4994930;28;20046;-60
2023/10/28 12:35:15;;;;;;;21.30;9.32;;;26.80;99.90;;;;;;5012179;28;20041;-59
2023/10/28 12:37:41;;;;;;;19.95;10.90;;;26.70;99.90;;;;;;5012604;28;20029;-55
2023/10/28 12:40:09;;;;;;;18.27;13.10;;;26.70;99.90;;;;;;5011956;28;20017;-56
2023/10/28 12:42:36;;;;;;;17.95;12.32;;;26.60;99.90;;;;;;5009665;28;20413;-56